Time;durP1;ratioP1;P1;durP2;ratioP2;P2;SDS_P1;SDS_P2;PMS_P1;PMS_P2;Temp;Humidity;BMP_temperature;BMP_pressure;BME280_temperature;BME280_humidity;BME280_pressure;Samples;Min_cycle;Max_cycle;Signal;HPM_P1;HPM_P2
2024/02/24 00:01:48;;;;;;;6.60;1.87;;;;;;;;;;6116358;29;20407;-63
2024/02/24 00:04:52;;;;;;;3.60;1.83;;;;;;;;;;6115292;29;20555;-63
2024/02/24 00:07:57;;;;;;;9.80;2.20;;;;;;;;;;6115619;29;20294;-63
2024/02/24 00:11:01;;;;;;;3.07;2.10;;;;;;;;;;6128868;29;20290;-63
2024/02/24 00:14:05;;;;;;;3.90;1.93;;;;;;;;;;6138928;29;20302;-63
2024/02/24 00:17:09;;;;;;;5.07;1.97;;;;;;;;;;6139837;29;20450;-63
2024/02/24 00:20:13;;;;;;;2.03;1.60;;;;;;;;;;6138230;29;20302;-63
2024/02/24 00:23:18;;;;;;;3.80;2.40;;;;;;;;;;6138588;29;20306;-63
2024/02/24 00:26:22;;;;;;;9.07;2.87;;;;;;;;;;6139696;29;20575;-63
2024/02/24 00:29:26;;;;;;;5.07;2.03;;;;;;;;;;6138459;29;20307;-63
2024/02/24 00:32:30;;;;;;;3.53;2.03;;;;;;;;;;6139023;29;20302;-64
2024/02/24 00:35:34;;;;;;;2.67;1.63;;;;;;;;;;6139508;29;20294;-63
2024/02/24 00:38:39;;;;;;;3.53;2.07;;;;;;;;;;6138140;29;20299;-63
2024/02/24 00:41:43;;;;;;;4.33;1.90;;;;;;;;;;6138719;29;20306;-63
2024/02/24 00:44:47;;;;;;;2.80;1.90;;;;;;;;;;6138124;29;20294;-63
2024/02/24 00:47:51;;;;;;;3.63;1.83;;;;;;;;;;6138228;29;20294;-63
2024/02/24 00:50:55;;;;;;;5.73;2.13;;;;;;;;;;6138447;29;20294;-63
2024/02/24 00:54:00;;;;;;;3.97;2.10;;;;;;;;;;6133410;29;20299;-63
2024/02/24 00:57:05;;;;;;;5.80;2.30;;;;;;;;;;6105862;29;20300;-63
2024/02/24 01:00:09;;;;;;;4.00;2.20;;;;;;;;;;6090422;29;20303;-63
2024/02/24 01:03:13;;;;;;;6.57;2.27;;;;;;;;;;6090887;29;20307;-63
2024/02/24 01:06:17;;;;;;;4.60;2.03;;;;;;;;;;6091262;29;20295;-63
2024/02/24 01:09:23;;;;;;;3.93;2.40;;;;;;;;;;6090425;29;20307;-63
2024/02/24 01:12:27;;;;;;;4.07;2.10;;;;;;;;;;6091394;29;20383;-62
2024/02/24 01:15:31;;;;;;;2.90;2.20;;;;;;;;;;6090166;29;20307;-62
2024/02/24 01:18:34;;;;;;;5.57;2.23;;;;;;;;;;6090694;29;20303;-62
2024/02/24 01:21:41;;;;;;;5.30;2.40;;;;;;;;;;6090720;29;20303;-62
2024/02/24 01:24:47;;;;;;;4.53;2.27;;;;;;;;;;6090608;29;20301;-62
2024/02/24 01:27:50;;;;;;;5.87;2.27;;;;;;;;;;6090089;29;20425;-63
2024/02/24 01:30:54;;;;;;;2.83;2.37;;;;;;;;;;6090571;29;20303;-62
2024/02/24 01:33:58;;;;;;;6.07;2.30;;;;;;;;;;6089919;29;20288;-62
2024/02/24 01:37:02;;;;;;;6.27;2.17;;;;;;;;;;6089696;29;20426;-63
2024/02/24 01:40:08;;;;;;;6.40;2.17;;;;;;;;;;6090367;29;20295;-63
2024/02/24 01:43:25;;;;;;;4.83;2.10;;;;;;;;;;6089663;29;20382;-63
2024/02/24 01:46:31;;;;;;;5.57;2.33;;;;;;;;;;6089761;29;20306;-62
2024/02/24 01:49:35;;;;;;;4.93;2.27;;;;;;;;;;6089553;29;20298;-62
2024/02/24 01:52:40;;;;;;;4.57;2.43;;;;;;;;;;6089717;29;20295;-62
2024/02/24 01:55:46;;;;;;;2.97;2.30;;;;;;;;;;6127075;29;20574;-62
2024/02/24 01:58:51;;;;;;;5.00;2.07;;;;;;;;;;6136524;29;20310;-62
2024/02/24 02:01:55;;;;;;;3.47;2.40;;;;;;;;;;6136635;29;20294;-63
2024/02/24 02:04:58;;;;;;;5.07;2.07;;;;;;;;;;6136915;29;20570;-63
2024/02/24 02:08:02;;;;;;;2.77;2.27;;;;;;;;;;6136205;29;20294;-63
2024/02/24 02:11:10;;;;;;;4.60;2.10;;;;;;;;;;6123216;29;20310;-62
2024/02/24 02:14:15;;;;;;;4.33;2.20;;;;;;;;;;6112871;29;20294;-62
2024/02/24 02:17:19;;;;;;;3.73;2.40;;;;;;;;;;6113610;29;20294;-62
2024/02/24 02:20:23;;;;;;;5.27;2.43;;;;;;;;;;6112692;29;20474;-64
2024/02/24 02:23:28;;;;;;;5.50;2.30;;;;;;;;;;6112810;29;20297;-62
2024/02/24 02:26:32;;;;;;;4.20;2.43;;;;;;;;;;6112372;29;20302;-63
2024/02/24 02:29:37;;;;;;;4.87;2.47;;;;;;;;;;6112724;29;20491;-62
2024/02/24 02:32:40;;;;;;;7.13;2.43;;;;;;;;;;6112216;29;20306;-62
2024/02/24 02:35:45;;;;;;;3.50;2.33;;;;;;;;;;6113573;29;20298;-62
2024/02/24 02:38:50;;;;;;;8.73;1.90;;;;;;;;;;6113014;29;20621;-63
2024/02/24 02:41:54;;;;;;;2.47;2.20;;;;;;;;;;6112714;29;20307;-62
2024/02/24 02:44:58;;;;;;;4.27;2.40;;;;;;;;;;6112223;29;20294;-63
2024/02/24 02:48:02;;;;;;;3.13;1.90;;;;;;;;;;6112029;29;20427;-62
2024/02/24 02:51:06;;;;;;;3.50;2.27;;;;;;;;;;6109813;29;20310;-62
2024/02/24 02:54:11;;;;;;;5.17;2.07;;;;;;;;;;6117898;29;20298;-62
2024/02/24 02:57:15;;;;;;;1.83;1.83;;;;;;;;;;6136828;29;20253;-62
2024/02/24 03:00:19;;;;;;;5.80;2.10;;;;;;;;;;6136029;29;20306;-62
2024/02/24 03:03:24;;;;;;;7.63;2.10;;;;;;;;;;6136038;29;20298;-62
2024/02/24 03:06:31;;;;;;;4.67;2.00;;;;;;;;;;6136110;29;20595;-62
2024/02/24 03:09:37;;;;;;;4.30;1.90;;;;;;;;;;6134556;29;20445;-63
2024/02/24 03:12:41;;;;;;;7.80;2.27;;;;;;;;;;6111931;29;20327;-62
2024/02/24 03:15:45;;;;;;;5.47;2.20;;;;;;;;;;6112685;29;20606;-62
2024/02/24 03:18:50;;;;;;;4.73;2.33;;;;;;;;;;6111760;29;20358;-62
2024/02/24 03:21:54;;;;;;;3.73;2.20;;;;;;;;;;6112572;29;20290;-63
2024/02/24 03:24:59;;;;;;;4.50;2.10;;;;;;;;;;6111943;29;20285;-62
2024/02/24 03:28:04;;;;;;;2.53;2.33;;;;;;;;;;6111704;29;20303;-62
2024/02/24 03:31:08;;;;;;;5.33;4.30;;;;;;;;;;6112052;29;20291;-62
2024/02/24 03:34:11;;;;;;;5.07;1.90;;;;;;;;;;6110806;29;20294;-62
2024/02/24 03:37:15;;;;;;;5.03;1.90;;;;;;;;;;6112950;29;20302;-62
2024/02/24 03:40:20;;;;;;;4.33;1.90;;;;;;;;;;6115987;29;20615;-62
2024/02/24 03:43:24;;;;;;;7.20;1.90;;;;;;;;;;6115879;29;20299;-62
2024/02/24 03:46:28;;;;;;;4.53;1.60;;;;;;;;;;6116267;29;20302;-63
2024/02/24 03:49:32;;;;;;;4.50;1.70;;;;;;;;;;6115412;29;20305;-62
2024/02/24 03:52:36;;;;;;;5.60;1.93;;;;;;;;;;6114458;29;20398;-63
2024/02/24 03:55:41;;;;;;;2.80;1.63;;;;;;;;;;6133967;29;20301;-62
2024/02/24 03:58:45;;;;;;;6.13;2.20;;;;;;;;;;6139172;29;20297;-62
2024/02/24 04:01:49;;;;;;;2.50;1.90;;;;;;;;;;6125703;29;20294;-63
2024/02/24 04:04:53;;;;;;;3.53;2.03;;;;;;;;;;6123998;29;20388;-64
2024/02/24 04:07:57;;;;;;;6.53;2.27;;;;;;;;;;6125238;29;20289;-63
2024/02/24 04:11:02;;;;;;;3.10;1.60;;;;;;;;;;6119967;29;20316;-63
2024/02/24 04:14:06;;;;;;;4.10;2.00;;;;;;;;;;6138703;29;20298;-63
2024/02/24 04:17:10;;;;;;;5.73;2.03;;;;;;;;;;6139021;29;20512;-63
2024/02/24 04:20:15;;;;;;;1.90;1.80;;;;;;;;;;6128509;29;20577;-63
2024/02/24 04:23:19;;;;;;;2.83;1.97;;;;;;;;;;6115902;29;20320;-63
2024/02/24 04:26:24;;;;;;;2.60;2.40;;;;;;;;;;6115343;29;20298;-63
2024/02/24 04:29:29;;;;;;;2.97;1.87;;;;;;;;;;6114753;29;20301;-63
2024/02/24 04:32:33;;;;;;;3.30;1.87;;;;;;;;;;6115382;29;20305;-63
2024/02/24 04:35:37;;;;;;;5.20;1.70;;;;;;;;;;6115368;29;20586;-63
2024/02/24 04:38:41;;;;;;;5.20;1.90;;;;;;;;;;6135534;29;20325;-63
2024/02/24 04:41:47;;;;;;;3.13;1.93;;;;;;;;;;6138837;29;20302;-64
2024/02/24 04:44:51;;;;;;;2.37;1.80;;;;;;;;;;6138059;29;20297;-63
2024/02/24 04:47:55;;;;;;;3.67;1.70;;;;;;;;;;6137780;29;20316;-63
2024/02/24 04:50:59;;;;;;;5.37;1.90;;;;;;;;;;6137285;29;20296;-63
2024/02/24 04:54:06;;;;;;;2.80;1.80;;;;;;;;;;6132530;29;20562;-63
2024/02/24 04:57:12;;;;;;;4.27;1.90;;;;;;;;;;6114978;29;20323;-63
2024/02/24 05:00:16;;;;;;;3.87;1.90;;;;;;;;;;6114192;29;20612;-63
2024/02/24 05:03:20;;;;;;;2.47;1.60;;;;;;;;;;6114622;29;20293;-63
2024/02/24 05:06:24;;;;;;;3.80;1.70;;;;;;;;;;6114010;29;20565;-63
2024/02/24 05:09:28;;;;;;;3.17;1.97;;;;;;;;;;6113829;29;20310;-63
2024/02/24 05:12:33;;;;;;;5.20;2.08;;;;;;;;;;6131258;29;20577;-63
2024/02/24 05:15:37;;;;;;;4.53;1.80;;;;;;;;;;6137924;29;20297;-63
2024/02/24 05:18:41;;;;;;;5.10;1.90;;;;;;;;;;6137576;29;20297;-63
2024/02/24 05:21:47;;;;;;;8.67;2.00;;;;;;;;;;6137989;29;20293;-63
2024/02/24 05:24:50;;;;;;;1.90;1.57;;;;;;;;;;6136160;29;20307;-63
2024/02/24 05:27:56;;;;;;;1.77;1.70;;;;;;;;;;6137525;29;20318;-63
2024/02/24 05:31:00;;;;;;;2.47;1.50;;;;;;;;;;6137359;29;20299;-63
2024/02/24 05:34:06;;;;;;;2.73;1.70;;;;;;;;;;6137316;29;20310;-63
2024/02/24 05:37:11;;;;;;;1.80;1.67;;;;;;;;;;6137969;29;20297;-63
2024/02/24 05:40:15;;;;;;;2.93;1.87;;;;;;;;;;6135467;29;20338;-63
2024/02/24 05:43:20;;;;;;;2.30;1.97;;;;;;;;;;6137492;29;20301;-63
2024/02/24 05:46:24;;;;;;;7.87;1.60;;;;;;;;;;6136807;29;20299;-63
2024/02/24 05:49:28;;;;;;;3.50;1.90;;;;;;;;;;6136818;29;20562;-63
2024/02/24 05:52:32;;;;;;;4.37;1.40;;;;;;;;;;6137273;29;20389;-63
2024/02/24 05:55:36;;;;;;;1.60;1.60;;;;;;;;;;6119319;29;20310;-63
2024/02/24 05:58:42;;;;;;;4.30;1.73;;;;;;;;;;6112854;29;20303;-63
2024/02/24 06:01:46;;;;;;;2.50;1.60;;;;;;;;;;6113547;29;20306;-62
2024/02/24 06:04:50;;;;;;;3.47;1.80;;;;;;;;;;6113002;29;20302;-61
2024/02/24 06:07:54;;;;;;;5.20;1.60;;;;;;;;;;6112727;29;20308;-63
2024/02/24 06:10:58;;;;;;;1.80;1.70;;;;;;;;;;6118718;29;20297;-63
2024/02/24 06:14:03;;;;;;;1.93;1.57;;;;;;;;;;6136202;29;20304;-63
2024/02/24 06:17:07;;;;;;;2.17;1.60;;;;;;;;;;6136549;29;20310;-62
2024/02/24 06:20:12;;;;;;;2.13;1.97;;;;;;;;;;6136034;29;20585;-62
2024/02/24 06:23:15;;;;;;;2.17;1.40;;;;;;;;;;6136848;29;20539;-63
2024/02/24 06:26:19;;;;;;;2.30;1.60;;;;;;;;;;6136274;29;20476;-62
2024/02/24 06:29:25;;;;;;;2.13;1.53;;;;;;;;;;6136099;29;20361;-62
2024/02/24 06:32:29;;;;;;;3.17;1.80;;;;;;;;;;6136440;29;20298;-63
2024/02/24 06:35:33;;;;;;;1.77;1.67;;;;;;;;;;6136182;29;20423;-63
2024/02/24 06:38:37;;;;;;;2.43;1.57;;;;;;;;;;6136053;29;20302;-62
2024/02/24 06:41:41;;;;;;;2.57;1.63;;;;;;;;;;6136648;29;20383;-62
2024/02/24 06:44:46;;;;;;;2.90;1.80;;;;;;;;;;6135716;29;20301;-62
2024/02/24 06:47:50;;;;;;;3.27;1.47;;;;;;;;;;6136131;29;20325;-62
2024/02/24 06:50:54;;;;;;;3.00;1.70;;;;;;;;;;6135558;29;20305;-62
2024/02/24 06:53:58;;;;;;;2.83;1.60;;;;;;;;;;6131022;29;20433;-62
2024/02/24 06:57:02;;;;;;;2.53;1.73;;;;;;;;;;6112879;29;20326;-63
2024/02/24 07:00:10;;;;;;;3.30;1.60;;;;;;;;;;6112186;29;20315;-62
2024/02/24 07:03:14;;;;;;;2.00;1.70;;;;;;;;;;6112558;29;20307;-62
2024/02/24 07:06:18;;;;;;;3.33;1.70;;;;;;;;;;6111543;29;20308;-62
2024/02/24 07:09:22;;;;;;;1.80;1.70;;;;;;;;;;6111990;29;20302;-62
2024/02/24 07:12:26;;;;;;;2.10;1.73;;;;;;;;;;6131092;29;20305;-63
2024/02/24 07:15:32;;;;;;;2.90;1.70;;;;;;;;;;6140699;29;20301;-63
2024/02/24 07:18:37;;;;;;;3.20;1.77;;;;;;;;;;6140563;29;20233;-63
2024/02/24 07:21:43;;;;;;;2.80;1.80;;;;;;;;;;6141054;29;20306;-63
2024/02/24 07:24:46;;;;;;;4.70;2.10;;;;;;;;;;6140423;29;20311;-63
2024/02/24 07:27:50;;;;;;;6.33;1.83;;;;;;;;;;6141054;29;20482;-62
2024/02/24 07:30:56;;;;;;;3.10;1.57;;;;;;;;;;6139700;29;20305;-62
2024/02/24 07:34:00;;;;;;;4.40;1.70;;;;;;;;;;6139931;29;20309;-62
2024/02/24 07:37:05;;;;;;;3.10;1.70;;;;;;;;;;6140590;29;20574;-63
2024/02/24 07:40:10;;;;;;;1.43;1.40;;;;;;;;;;6139583;29;20287;-62
2024/02/24 07:43:15;;;;;;;1.80;1.70;;;;;;;;;;6140515;29;20306;-62
2024/02/24 07:46:27;;;;;;;5.13;1.83;;;;;;;;;;6139505;29;20305;-63
2024/02/24 07:49:31;;;;;;;1.87;1.60;;;;;;;;;;6138526;29;20480;-63
2024/02/24 07:52:35;;;;;;;3.93;1.70;;;;;;;;;;6140526;29;20353;-62
2024/02/24 07:55:39;;;;;;;2.63;1.60;;;;;;;;;;6121721;29;20307;-62
2024/02/24 07:58:43;;;;;;;5.53;2.03;;;;;;;;;;6115335;29;20322;-62
2024/02/24 08:01:48;;;;;;;2.40;1.80;;;;;;;;;;6116202;29;20445;-64
2024/02/24 08:04:52;;;;;;;1.70;1.60;;;;;;;;;;6115230;29;20486;-64
2024/02/24 08:07:56;;;;;;;2.07;1.70;;;;;;;;;;6115951;29;20623;-63
2024/02/24 08:11:00;;;;;;;2.80;1.47;;;;;;;;;;6121679;29;20578;-63
2024/02/24 08:14:04;;;;;;;1.70;1.60;;;;;;;;;;6139379;29;20306;-63
2024/02/24 08:17:10;;;;;;;6.00;1.60;;;;;;;;;;6139687;29;20456;-63
2024/02/24 08:20:15;;;;;;;2.60;1.60;;;;;;;;;;6139235;29;20301;-63
2024/02/24 08:23:19;;;;;;;3.23;1.60;;;;;;;;;;6138882;29;20310;-63
2024/02/24 08:26:22;;;;;;;4.47;1.50;;;;;;;;;;6138362;29;20575;-64
2024/02/24 08:29:27;;;;;;;5.70;1.70;;;;;;;;;;6138991;29;20298;-62
2024/02/24 08:32:32;;;;;;;3.37;1.47;;;;;;;;;;6139251;29;20310;-62
2024/02/24 08:35:36;;;;;;;2.40;1.57;;;;;;;;;;6138476;29;20298;-62
2024/02/24 08:38:40;;;;;;;1.47;1.33;;;;;;;;;;6138660;29;20297;-62
2024/02/24 08:41:44;;;;;;;4.90;1.70;;;;;;;;;;6139352;29;20329;-62
2024/02/24 08:44:49;;;;;;;2.50;1.50;;;;;;;;;;6138687;29;20346;-63
2024/02/24 08:47:55;;;;;;;2.07;1.30;;;;;;;;;;6138952;29;20262;-64
2024/02/24 08:50:59;;;;;;;2.30;1.50;;;;;;;;;;6138506;29;20298;-63
2024/02/24 08:54:03;;;;;;;5.87;1.40;;;;;;;;;;6133346;29;20294;-63
2024/02/24 08:57:07;;;;;;;4.43;1.80;;;;;;;;;;6115156;29;20291;-63
2024/02/24 09:00:13;;;;;;;2.93;1.53;;;;;;;;;;6114615;29;20298;-64
2024/02/24 09:03:19;;;;;;;1.60;1.50;;;;;;;;;;6115021;29;20296;-63
2024/02/24 09:06:25;;;;;;;6.23;1.50;;;;;;;;;;6114439;29;20299;-63
2024/02/24 09:09:29;;;;;;;1.93;1.30;;;;;;;;;;6113937;29;20304;-64
2024/02/24 09:12:33;;;;;;;1.42;1.30;;;;;;;;;;6133489;29;20303;-63
2024/02/24 09:15:37;;;;;;;6.10;1.75;;;;;;;;;;6136635;29;20471;-63
2024/02/24 09:18:42;;;;;;;2.45;1.60;;;;;;;;;;6137446;29;20558;-61
2024/02/24 09:21:46;;;;;;;2.38;1.50;;;;;;;;;;6138027;29;20299;-62
2024/02/24 09:24:51;;;;;;;1.50;1.40;;;;;;;;;;6137355;29;20299;-61
2024/02/24 09:27:54;;;;;;;4.43;1.50;;;;;;;;;;6137850;29;20306;-62
2024/02/24 09:30:58;;;;;;;1.50;1.40;;;;;;;;;;6137057;29;20298;-63
2024/02/24 09:34:04;;;;;;;5.03;1.60;;;;;;;;;;6136832;29;20323;-63
2024/02/24 09:37:09;;;;;;;2.13;1.90;;;;;;;;;;6137264;29;20296;-63
2024/02/24 09:40:13;;;;;;;1.60;1.50;;;;;;;;;;6137189;29;20298;-63
2024/02/24 09:43:17;;;;;;;6.70;1.58;;;;;;;;;;6127306;29;20303;-61
2024/02/24 09:46:22;;;;;;;4.60;1.60;;;;;;;;;;6114734;29;20311;-61
2024/02/24 09:49:28;;;;;;;3.92;1.70;;;;;;;;;;6115163;29;20604;-61
2024/02/24 09:52:32;;;;;;;2.83;1.57;;;;;;;;;;6115486;29;20580;-61
2024/02/24 09:55:36;;;;;;;1.63;1.52;;;;;;;;;;6115264;29;20308;-60
2024/02/24 09:58:42;;;;;;;4.47;1.63;;;;;;;;;;6114761;29;20545;-61
2024/02/24 10:01:47;;;;;;;3.03;1.60;;;;;;;;;;6115289;29;20307;-61
2024/02/24 10:04:53;;;;;;;2.78;1.75;;;;;;;;;;6113710;29;20304;-61
2024/02/24 10:07:57;;;;;;;4.87;1.60;;;;;;;;;;6114970;29;20400;-60
2024/02/24 10:11:03;;;;;;;1.92;1.60;;;;;;;;;;6121350;29;20299;-60
2024/02/24 10:14:07;;;;;;;2.78;1.45;;;;;;;;;;6138057;29;20298;-60
2024/02/24 10:17:11;;;;;;;1.97;1.40;;;;;;;;;;6139029;29;20528;-59
2024/02/24 10:20:16;;;;;;;2.95;1.60;;;;;;;;;;6138465;29;20295;-61
2024/02/24 10:23:20;;;;;;;5.90;1.75;;;;;;;;;;6138724;29;20294;-60
2024/02/24 10:26:25;;;;;;;2.43;1.50;;;;;;;;;;6137654;29;20303;-60
2024/02/24 10:29:30;;;;;;;1.38;1.38;;;;;;;;;;6137942;29;20310;-61
2024/02/24 10:32:34;;;;;;;2.55;1.50;;;;;;;;;;6138719;29;20298;-61
2024/02/24 10:35:40;;;;;;;1.70;1.60;;;;;;;;;;6138150;29;20298;-61
2024/02/24 10:38:48;;;;;;;3.10;1.70;;;;;;;;;;6137802;29;20303;-61
2024/02/24 10:41:59;;;;;;;3.92;1.65;;;;;;;;;;6138411;29;20291;-61
2024/02/24 10:45:06;;;;;;;3.25;1.73;;;;;;;;;;6137930;29;20613;-61
2024/02/24 10:48:10;;;;;;;1.83;1.50;;;;;;;;;;6140447;29;20568;-61
2024/02/24 10:51:16;;;;;;;1.67;1.63;;;;;;;;;;6142784;29;20294;-61
2024/02/24 10:54:22;;;;;;;3.15;1.80;;;;;;;;;;6142495;29;20298;-61
2024/02/24 10:57:26;;;;;;;4.55;1.40;;;;;;;;;;6143143;29;20295;-61
2024/02/24 11:00:32;;;;;;;2.38;1.55;;;;;;;;;;6142380;29;20485;-61
2024/02/24 11:03:36;;;;;;;5.05;1.40;;;;;;;;;;6142472;29;20298;-61
2024/02/24 11:06:45;;;;;;;2.58;1.52;;;;;;;;;;6142619;29;20590;-60
2024/02/24 11:09:52;;;;;;;2.75;1.83;;;;;;;;;;6142232;29;20302;-60
2024/02/24 11:12:58;;;;;;;4.22;1.90;;;;;;;;;;6120876;29;20351;-59
2024/02/24 11:16:05;;;;;;;1.75;1.65;;;;;;;;;;6118641;29;20295;-60
2024/02/24 11:19:11;;;;;;;6.10;1.75;;;;;;;;;;6118649;29;20300;-59
2024/02/24 11:22:24;;;;;;;1.70;1.60;;;;;;;;;;6119094;29;20291;-61
2024/02/24 11:25:28;;;;;;;2.65;1.75;;;;;;;;;;6118087;29;20307;-60
2024/02/24 11:28:32;;;;;;;4.97;1.92;;;;;;;;;;6118735;29;20295;-60
2024/02/24 11:31:37;;;;;;;1.60;1.60;;;;;;;;;;6118912;29;20607;-60
2024/02/24 11:34:45;;;;;;;4.03;1.40;;;;;;;;;;6118665;29;20299;-59
2024/02/24 11:37:53;;;;;;;2.53;2.05;;;;;;;;;;6118841;29;20485;-60
2024/02/24 11:40:58;;;;;;;3.05;1.70;;;;;;;;;;6117396;29;20304;-60
2024/02/24 11:44:03;;;;;;;4.47;1.73;;;;;;;;;;6118812;29;20291;-60
2024/02/24 11:47:07;;;;;;;2.13;1.35;;;;;;;;;;6118214;29;20295;-61
2024/02/24 11:50:11;;;;;;;2.63;1.52;;;;;;;;;;6117778;29;20295;-60
2024/02/24 11:53:17;;;;;;;4.97;1.60;;;;;;;;;;6118444;29;20312;-60
2024/02/24 11:56:22;;;;;;;2.88;1.70;;;;;;;;;;6118236;29;20303;-60
2024/02/24 11:59:29;;;;;;;3.15;1.85;;;;;;;;;;6117471;29;20304;-59
2024/02/24 12:02:33;;;;;;;5.78;1.73;;;;;;;;;;6117993;29;20315;-59
2024/02/24 12:05:37;;;;;;;4.93;1.75;;;;;;;;;;6117692;29;20473;-59
2024/02/24 12:08:42;;;;;;;3.38;1.63;;;;;;;;;;6117331;29;20295;-61
2024/02/24 12:11:46;;;;;;;6.15;1.52;;;;;;;;;;6130479;29;20315;-61
2024/02/24 12:14:50;;;;;;;2.50;1.60;;;;;;;;;;6140971;29;20302;-61
2024/02/24 12:17:54;;;;;;;3.40;1.63;;;;;;;;;;6141599;29;20300;-60
2024/02/24 12:20:58;;;;;;;2.38;1.63;;;;;;;;;;6140320;29;20295;-61
2024/02/24 12:24:04;;;;;;;1.70;1.60;;;;;;;;;;6140475;29;20298;-61
2024/02/24 12:27:10;;;;;;;3.58;1.60;;;;;;;;;;6141056;29;20396;-61
2024/02/24 12:30:14;;;;;;;4.28;1.40;;;;;;;;;;6140184;29;20374;-61
2024/02/24 12:33:18;;;;;;;4.47;1.75;;;;;;;;;;6140554;29;20303;-60
2024/02/24 12:36:22;;;;;;;2.53;1.50;;;;;;;;;;6140314;29;20302;-60
2024/02/24 12:39:29;;;;;;;6.97;1.58;;;;;;;;;;6140401;29;20300;-61
2024/02/24 12:42:39;;;;;;;1.50;1.40;;;;;;;;;;6140849;29;20291;-60
2024/02/24 12:45:44;;;;;;;1.98;1.52;;;;;;;;;;6139658;29;20334;-61
2024/02/24 12:48:47;;;;;;;2.15;1.50;;;;;;;;;;6139891;29;20303;-61
2024/02/24 12:51:53;;;;;;;2.75;1.35;;;;;;;;;;6140090;29;20599;-59
2024/02/24 12:54:58;;;;;;;3.88;1.70;;;;;;;;;;6139887;29;20302;-60
2024/02/24 12:58:02;;;;;;;3.45;1.67;;;;;;;;;;6128851;29;20581;-60
2024/02/24 13:01:08;;;;;;;5.07;1.83;;;;;;;;;;6092561;29;20304;-60
2024/02/24 13:04:12;;;;;;;2.05;1.70;;;;;;;;;;6092526;29;20296;-61
2024/02/24 13:07:16;;;;;;;1.80;1.70;;;;;;;;;;6093530;29;20296;-61
2024/02/24 13:10:22;;;;;;;2.90;1.75;;;;;;;;;;6094207;29;20293;-59
2024/02/24 13:13:26;;;;;;;1.77;1.63;;;;;;;;;;6140241;29;20300;-61
2024/02/24 13:16:30;;;;;;;5.05;1.50;;;;;;;;;;6139631;29;20299;-60
2024/02/24 13:19:34;;;;;;;1.60;1.50;;;;;;;;;;6139366;29;20295;-60
2024/02/24 13:22:40;;;;;;;10.00;1.85;;;;;;;;;;6140064;29;20311;-60
2024/02/24 13:25:46;;;;;;;1.50;1.40;;;;;;;;;;6139700;29;20299;-60
2024/02/24 13:28:49;;;;;;;1.95;1.45;;;;;;;;;;6139423;29;20308;-60
2024/02/24 13:31:53;;;;;;;5.00;1.73;;;;;;;;;;6138419;29;20271;-60
2024/02/24 13:34:58;;;;;;;3.40;1.80;;;;;;;;;;6139200;29;20291;-61
2024/02/24 13:38:02;;;;;;;3.83;2.00;;;;;;;;;;6138102;29;20447;-60
2024/02/24 13:41:07;;;;;;;4.65;2.08;;;;;;;;;;6139112;29;20311;-62
2024/02/24 13:44:12;;;;;;;3.65;1.92;;;;;;;;;;6138803;29;20635;-61
2024/02/24 13:47:17;;;;;;;9.73;2.28;;;;;;;;;;6139252;29;20295;-59
2024/02/24 13:50:22;;;;;;;3.15;2.00;;;;;;;;;;6138902;29;20536;-60
2024/02/24 13:53:26;;;;;;;2.10;2.00;;;;;;;;;;6139221;29;20299;-61
2024/02/24 13:56:31;;;;;;;3.00;2.00;;;;;;;;;;6138541;29;20299;-60
2024/02/24 13:59:35;;;;;;;3.53;2.20;;;;;;;;;;6138226;29;20327;-59
2024/02/24 14:02:39;;;;;;;2.22;2.03;;;;;;;;;;6139084;29;20307;-59
2024/02/24 14:05:43;;;;;;;2.23;2.10;;;;;;;;;;6138303;29;20463;-60
2024/02/24 14:08:47;;;;;;;2.15;2.05;;;;;;;;;;6138100;29;20306;-61
2024/02/24 14:11:53;;;;;;;2.30;2.20;;;;;;;;;;6125331;29;20301;-59
2024/02/24 14:14:57;;;;;;;3.42;2.00;;;;;;;;;;6114579;29;20303;-60
2024/02/24 14:18:01;;;;;;;3.80;2.63;;;;;;;;;;6115147;29;20383;-59
2024/02/24 14:21:06;;;;;;;7.80;2.33;;;;;;;;;;6114411;29;20295;-59
2024/02/24 14:24:10;;;;;;;4.53;2.03;;;;;;;;;;6114486;29;20289;-61
2024/02/24 14:27:16;;;;;;;3.50;2.40;;;;;;;;;;6115222;29;20557;-60
2024/02/24 14:30:20;;;;;;;4.72;2.47;;;;;;;;;;6114629;29;20292;-60
2024/02/24 14:33:23;;;;;;;3.72;2.05;;;;;;;;;;6115125;29;20299;-61
2024/02/24 14:36:28;;;;;;;2.05;1.95;;;;;;;;;;6114378;29;20303;-60
2024/02/24 14:39:33;;;;;;;2.58;2.15;;;;;;;;;;6114290;29;20299;-60
2024/02/24 14:42:38;;;;;;;5.47;2.88;;;;;;;;;;6115178;29;20291;-60
2024/02/24 14:45:42;;;;;;;1.92;1.83;;;;;;;;;;6114731;29;20303;-60
2024/02/24 14:48:47;;;;;;;2.25;2.05;;;;;;;;;;6114485;29;20303;-59
2024/02/24 14:51:52;;;;;;;2.80;2.58;;;;;;;;;;6114733;29;20607;-59
2024/02/24 14:54:55;;;;;;;2.78;1.98;;;;;;;;;;6114592;29;20295;-60
2024/02/24 14:58:01;;;;;;;3.75;2.35;;;;;;;;;;6115076;29;20295;-60
2024/02/24 15:01:05;;;;;;;5.65;2.35;;;;;;;;;;6113725;29;20587;-60
2024/02/24 15:04:09;;;;;;;2.93;2.10;;;;;;;;;;6112485;29;20299;-60
2024/02/24 15:07:13;;;;;;;3.08;2.55;;;;;;;;;;6114365;29;20299;-59
2024/02/24 15:10:17;;;;;;;2.63;2.42;;;;;;;;;;6114735;29;20299;-60
2024/02/24 15:13:22;;;;;;;4.13;2.30;;;;;;;;;;6138372;29;20353;-60
2024/02/24 15:16:33;;;;;;;3.53;2.47;;;;;;;;;;6137250;29;20299;-60
2024/02/24 15:19:40;;;;;;;4.72;2.30;;;;;;;;;;6137568;29;20311;-60
2024/02/24 15:22:44;;;;;;;4.10;2.20;;;;;;;;;;6137996;29;20301;-60
2024/02/24 15:25:48;;;;;;;4.68;2.40;;;;;;;;;;6137458;29;20303;-61
2024/02/24 15:28:53;;;;;;;2.80;2.47;;;;;;;;;;6136743;29;20306;-60
2024/02/24 15:31:57;;;;;;;3.05;2.80;;;;;;;;;;6137980;29;20232;-60
2024/02/24 15:35:01;;;;;;;7.50;3.03;;;;;;;;;;6140399;29;20318;-60
2024/02/24 15:38:05;;;;;;;3.25;2.40;;;;;;;;;;6141893;29;20267;-60
2024/02/24 15:41:09;;;;;;;2.95;2.47;;;;;;;;;;6141543;29;20302;-60
2024/02/24 15:44:15;;;;;;;4.22;2.90;;;;;;;;;;6141362;29;21180;-60
2024/02/24 15:47:19;;;;;;;3.00;2.53;;;;;;;;;;6142110;29;20303;-59
2024/02/24 15:50:23;;;;;;;2.95;2.30;;;;;;;;;;6141437;29;20488;-60
2024/02/24 15:53:26;;;;;;;4.05;2.70;;;;;;;;;;6141836;29;20308;-60
2024/02/24 15:56:31;;;;;;;2.63;2.53;;;;;;;;;;6141024;29;20299;-60
2024/02/24 15:59:36;;;;;;;3.60;2.75;;;;;;;;;;6140932;29;20299;-59
2024/02/24 16:02:41;;;;;;;4.57;3.15;;;;;;;;;;6141484;29;20302;-60
2024/02/24 16:05:45;;;;;;;4.47;2.95;;;;;;;;;;6141131;29;20308;-60
2024/02/24 16:08:49;;;;;;;4.57;3.35;;;;;;;;;;6141186;29;20299;-61
2024/02/24 16:11:53;;;;;;;4.00;3.70;;;;;;;;;;6127910;29;20480;-60
2024/02/24 16:14:59;;;;;;;3.85;3.55;;;;;;;;;;6117308;29;20297;-60
2024/02/24 16:18:03;;;;;;;5.25;3.53;;;;;;;;;;6118019;29;20299;-60
2024/02/24 16:21:07;;;;;;;6.80;3.70;;;;;;;;;;6117546;29;20291;-61
2024/02/24 16:24:11;;;;;;;7.80;4.13;;;;;;;;;;6117277;29;20448;-60
2024/02/24 16:27:15;;;;;;;5.63;4.10;;;;;;;;;;6117846;29;20299;-60
2024/02/24 16:30:21;;;;;;;5.50;4.22;;;;;;;;;;6117275;29;20296;-60
2024/02/24 16:33:26;;;;;;;5.43;4.33;;;;;;;;;;6117576;29;20288;-60
2024/02/24 16:36:31;;;;;;;7.32;4.45;;;;;;;;;;6116681;29;20307;-60
2024/02/24 16:39:35;;;;;;;11.25;6.03;;;;;;;;;;6115682;29;20291;-60
2024/02/24 16:42:39;;;;;;;9.90;4.80;;;;;;;;;;6117722;29;20375;-60
2024/02/24 16:45:45;;;;;;;11.20;5.60;;;;;;;;;;6115041;29;20307;-60
2024/02/24 16:48:50;;;;;;;5.13;4.63;;;;;;;;;;6116834;29;20295;-61
2024/02/24 16:51:54;;;;;;;6.67;4.90;;;;;;;;;;6107103;29;20303;-60
2024/02/24 16:54:59;;;;;;;6.35;4.57;;;;;;;;;;6116512;29;20305;-59
2024/02/24 16:58:02;;;;;;;6.18;4.07;;;;;;;;;;6116567;29;20323;-60
2024/02/24 17:01:07;;;;;;;8.48;4.30;;;;;;;;;;6116734;29;20367;-59
2024/02/24 17:04:12;;;;;;;8.93;4.55;;;;;;;;;;6116256;29;20545;-60
2024/02/24 17:07:20;;;;;;;9.30;4.95;;;;;;;;;;6116311;29;20320;-61
2024/02/24 17:10:24;;;;;;;6.10;4.10;;;;;;;;;;6117996;29;20295;-60
2024/02/24 17:13:28;;;;;;;3.95;3.50;;;;;;;;;;6140276;29;20302;-60
2024/02/24 17:16:34;;;;;;;6.82;3.85;;;;;;;;;;6139675;29;20561;-60
2024/02/24 17:19:38;;;;;;;3.90;3.70;;;;;;;;;;6139727;29;20299;-60
2024/02/24 17:22:42;;;;;;;3.90;3.53;;;;;;;;;;6140125;29;20527;-60
2024/02/24 17:25:46;;;;;;;4.53;3.72;;;;;;;;;;6139493;29;20382;-60
2024/02/24 17:28:50;;;;;;;3.90;3.78;;;;;;;;;;6139350;29;20502;-60
2024/02/24 17:31:56;;;;;;;3.93;3.73;;;;;;;;;;6137885;29;20339;-61
2024/02/24 17:35:00;;;;;;;4.00;3.53;;;;;;;;;;6138927;29;20403;-61
2024/02/24 17:38:06;;;;;;;5.35;3.92;;;;;;;;;;6139223;29;20351;-61
2024/02/24 17:41:10;;;;;;;4.10;3.73;;;;;;;;;;6139016;29;20310;-59
2024/02/24 17:44:14;;;;;;;6.10;4.20;;;;;;;;;;6138393;29;20311;-60
2024/02/24 17:47:19;;;;;;;5.43;4.07;;;;;;;;;;6139038;29;20299;-60
2024/02/24 17:50:23;;;;;;;4.68;4.22;;;;;;;;;;6138882;29;20308;-61
2024/02/24 17:53:27;;;;;;;4.57;3.65;;;;;;;;;;6139169;29;20566;-60
2024/02/24 17:56:32;;;;;;;4.38;4.05;;;;;;;;;;6138499;29;20299;-60
2024/02/24 17:59:36;;;;;;;5.30;4.10;;;;;;;;;;6138817;29;20296;-60
2024/02/24 18:02:41;;;;;;;7.75;4.93;;;;;;;;;;6139212;29;20379;-60
2024/02/24 18:05:45;;;;;;;6.93;4.97;;;;;;;;;;6138796;29;20295;-60
2024/02/24 18:08:49;;;;;;;8.30;5.07;;;;;;;;;;6138471;29;20322;-59
2024/02/24 18:11:53;;;;;;;7.77;4.90;;;;;;;;;;6125434;29;20296;-60
2024/02/24 18:14:58;;;;;;;6.03;5.30;;;;;;;;;;6114492;29;20298;-60
2024/02/24 18:18:04;;;;;;;8.80;5.00;;;;;;;;;;6115396;29;20307;-60
2024/02/24 18:21:15;;;;;;;5.37;4.87;;;;;;;;;;6114951;29;20387;-60
2024/02/24 18:24:19;;;;;;;5.70;5.10;;;;;;;;;;6114671;29;20300;-60
2024/02/24 18:27:23;;;;;;;5.87;5.30;;;;;;;;;;6115416;29;20611;-61